sensor_id;sensor_type;location;lat;lon;timestamp;P1;durP1;ratioP1;P2;durP2;ratioP2
18013;SDS011;9132;47.946;10.394;2023-12-29T00:00:58;2.00;;;1.80;;
18013;SDS011;9132;47.946;10.394;2023-12-29T00:03:24;3.27;;;2.40;;
18013;SDS011;9132;47.946;10.394;2023-12-29T00:05:52;3.00;;;2.40;;
18013;SDS011;9132;47.946;10.394;2023-12-29T00:08:19;3.93;;;2.50;;
18013;SDS011;9132;47.946;10.394;2023-12-29T00:10:45;2.80;;;2.10;;
18013;SDS011;9132;47.946;10.394;2023-12-29T00:13:12;2.57;;;2.00;;
18013;SDS011;9132;47.946;10.394;2023-12-29T00:15:38;3.37;;;1.97;;
18013;SDS011;9132;47.946;10.394;2023-12-29T00:18:05;2.23;;;2.03;;
18013;SDS011;9132;47.946;10.394;2023-12-29T00:20:31;3.47;;;2.07;;
18013;SDS011;9132;47.946;10.394;2023-12-29T00:22:59;3.20;;;2.13;;
18013;SDS011;9132;47.946;10.394;2023-12-29T00:25:26;3.10;;;2.27;;
18013;SDS011;9132;47.946;10.394;2023-12-29T00:27:52;2.63;;;2.00;;
18013;SDS011;9132;47.946;10.394;2023-12-29T00:30:19;3.60;;;2.10;;
18013;SDS011;9132;47.946;10.394;2023-12-29T00:32:45;3.50;;;2.23;;
18013;SDS011;9132;47.946;10.394;2023-12-29T00:35:12;2.47;;;2.20;;
18013;SDS011;9132;47.946;10.394;2023-12-29T00:37:39;2.90;;;2.03;;
18013;SDS011;9132;47.946;10.394;2023-12-29T00:40:07;3.03;;;2.10;;
18013;SDS011;9132;47.946;10.394;2023-12-29T00:42:35;2.30;;;2.00;;
18013;SDS011;9132;47.946;10.394;2023-12-29T00:45:01;2.93;;;2.00;;
18013;SDS011;9132;47.946;10.394;2023-12-29T00:47:28;5.13;;;2.17;;
18013;SDS011;9132;47.946;10.394;2023-12-29T00:49:54;3.13;;;2.10;;
18013;SDS011;9132;47.946;10.394;2023-12-29T00:52:21;4.57;;;1.97;;
18013;SDS011;9132;47.946;10.394;2023-12-29T00:54:48;3.57;;;2.10;;
18013;SDS011;9132;47.946;10.394;2023-12-29T00:57:15;2.63;;;2.00;;
18013;SDS011;9132;47.946;10.394;2023-12-29T00:59:42;2.60;;;2.40;;
18013;SDS011;9132;47.946;10.394;2023-12-29T01:02:09;2.30;;;2.10;;
18013;SDS011;9132;47.946;10.394;2023-12-29T01:04:36;3.20;;;2.50;;
18013;SDS011;9132;47.946;10.394;2023-12-29T01:07:03;3.00;;;2.00;;
18013;SDS011;9132;47.946;10.394;2023-12-29T01:09:30;2.73;;;2.13;;
18013;SDS011;9132;47.946;10.394;2023-12-29T01:11:56;2.20;;;2.00;;
18013;SDS011;9132;47.946;10.394;2023-12-29T01:14:24;3.77;;;2.50;;
18013;SDS011;9132;47.946;10.394;2023-12-29T01:16:51;2.80;;;2.47;;
18013;SDS011;9132;47.946;10.394;2023-12-29T01:19:17;2.67;;;2.20;;
18013;SDS011;9132;47.946;10.394;2023-12-29T01:21:44;2.67;;;2.20;;
18013;SDS011;9132;47.946;10.394;2023-12-29T01:24:10;3.27;;;2.00;;
18013;SDS011;9132;47.946;10.394;2023-12-29T01:26:37;2.33;;;1.93;;
18013;SDS011;9132;47.946;10.394;2023-12-29T01:29:04;2.50;;;2.07;;
18013;SDS011;9132;47.946;10.394;2023-12-29T01:31:32;2.43;;;2.20;;
18013;SDS011;9132;47.946;10.394;2023-12-29T01:33:58;3.60;;;2.13;;
18013;SDS011;9132;47.946;10.394;2023-12-29T01:36:25;2.93;;;2.23;;
18013;SDS011;9132;47.946;10.394;2023-12-29T01:38:52;2.40;;;2.20;;
18013;SDS011;9132;47.946;10.394;2023-12-29T01:41:19;3.37;;;2.43;;
18013;SDS011;9132;47.946;10.394;2023-12-29T01:46:46;2.27;;;2.00;;
18013;SDS011;9132;47.946;10.394;2023-12-29T01:49:15;2.00;;;1.80;;
18013;SDS011;9132;47.946;10.394;2023-12-29T01:51:42;3.90;;;2.20;;
18013;SDS011;9132;47.946;10.394;2023-12-29T01:54:09;3.43;;;2.10;;
18013;SDS011;9132;47.946;10.394;2023-12-29T01:56:38;2.20;;;1.87;;
18013;SDS011;9132;47.946;10.394;2023-12-29T01:59:05;2.73;;;1.77;;
18013;SDS011;9132;47.946;10.394;2023-12-29T02:01:31;2.37;;;1.93;;
18013;SDS011;9132;47.946;10.394;2023-12-29T02:03:59;2.20;;;1.77;;
18013;SDS011;9132;47.946;10.394;2023-12-29T02:06:26;2.43;;;1.80;;
18013;SDS011;9132;47.946;10.394;2023-12-29T02:08:53;2.87;;;1.73;;
18013;SDS011;9132;47.946;10.394;2023-12-29T02:11:21;2.67;;;1.77;;
18013;SDS011;9132;47.946;10.394;2023-12-29T02:13:47;3.47;;;1.83;;
18013;SDS011;9132;47.946;10.394;2023-12-29T02:16:16;2.47;;;1.73;;
18013;SDS011;9132;47.946;10.394;2023-12-29T02:18:54;1.93;;;1.40;;
18013;SDS011;9132;47.946;10.394;2023-12-29T02:21:24;2.40;;;1.70;;
18013;SDS011;9132;47.946;10.394;2023-12-29T02:23:51;1.90;;;1.70;;
18013;SDS011;9132;47.946;10.394;2023-12-29T02:26:19;3.00;;;1.67;;
18013;SDS011;9132;47.946;10.394;2023-12-29T02:28:50;2.53;;;1.63;;
18013;SDS011;9132;47.946;10.394;2023-12-29T02:31:22;1.97;;;1.70;;
18013;SDS011;9132;47.946;10.394;2023-12-29T02:33:50;2.83;;;1.60;;
18013;SDS011;9132;47.946;10.394;2023-12-29T02:36:18;1.90;;;1.40;;
18013;SDS011;9132;47.946;10.394;2023-12-29T02:38:48;1.77;;;1.57;;
18013;SDS011;9132;47.946;10.394;2023-12-29T02:41:15;2.03;;;1.83;;
18013;SDS011;9132;47.946;10.394;2023-12-29T02:43:43;1.83;;;1.50;;
18013;SDS011;9132;47.946;10.394;2023-12-29T02:46:09;2.13;;;1.77;;
18013;SDS011;9132;47.946;10.394;2023-12-29T02:48:36;1.87;;;1.50;;
18013;SDS011;9132;47.946;10.394;2023-12-29T02:51:02;2.70;;;1.60;;
18013;SDS011;9132;47.946;10.394;2023-12-29T02:53:29;2.30;;;1.60;;
18013;SDS011;9132;47.946;10.394;2023-12-29T02:55:55;2.83;;;1.70;;
18013;SDS011;9132;47.946;10.394;2023-12-29T02:58:22;2.30;;;1.60;;
18013;SDS011;9132;47.946;10.394;2023-12-29T03:00:50;2.10;;;1.70;;
18013;SDS011;9132;47.946;10.394;2023-12-29T03:03:16;2.33;;;1.37;;
18013;SDS011;9132;47.946;10.394;2023-12-29T03:05:42;2.40;;;1.53;;
18013;SDS011;9132;47.946;10.394;2023-12-29T03:08:09;2.10;;;1.40;;
18013;SDS011;9132;47.946;10.394;2023-12-29T03:10:35;3.83;;;1.60;;
18013;SDS011;9132;47.946;10.394;2023-12-29T03:13:02;2.20;;;1.60;;
18013;SDS011;9132;47.946;10.394;2023-12-29T03:15:29;1.60;;;1.30;;
18013;SDS011;9132;47.946;10.394;2023-12-29T03:17:57;2.00;;;1.77;;
18013;SDS011;9132;47.946;10.394;2023-12-29T03:20:23;1.63;;;1.50;;
18013;SDS011;9132;47.946;10.394;2023-12-29T03:22:50;2.10;;;1.50;;
18013;SDS011;9132;47.946;10.394;2023-12-29T03:25:16;2.17;;;1.50;;
18013;SDS011;9132;47.946;10.394;2023-12-29T03:27:43;2.07;;;1.40;;
18013;SDS011;9132;47.946;10.394;2023-12-29T03:30:10;2.60;;;1.50;;
18013;SDS011;9132;47.946;10.394;2023-12-29T03:32:37;3.70;;;1.43;;
18013;SDS011;9132;47.946;10.394;2023-12-29T03:35:05;1.70;;;1.60;;
18013;SDS011;9132;47.946;10.394;2023-12-29T03:37:32;2.83;;;1.67;;
18013;SDS011;9132;47.946;10.394;2023-12-29T03:39:58;1.90;;;1.60;;
18013;SDS011;9132;47.946;10.394;2023-12-29T03:42:25;2.27;;;1.80;;
18013;SDS011;9132;47.946;10.394;2023-12-29T03:44:51;2.20;;;1.90;;
18013;SDS011;9132;47.946;10.394;2023-12-29T03:47:18;2.40;;;1.47;;
18013;SDS011;9132;47.946;10.394;2023-12-29T03:49:44;2.20;;;1.53;;
18013;SDS011;9132;47.946;10.394;2023-12-29T03:52:12;3.30;;;1.53;;
18013;SDS011;9132;47.946;10.394;2023-12-29T03:54:39;1.77;;;1.40;;
18013;SDS011;9132;47.946;10.394;2023-12-29T03:57:05;3.13;;;1.77;;
18013;SDS011;9132;47.946;10.394;2023-12-29T03:59:32;2.30;;;1.63;;
18013;SDS011;9132;47.946;10.394;2023-12-29T04:02:02;2.07;;;1.60;;
18013;SDS011;9132;47.946;10.394;2023-12-29T04:04:28;1.87;;;1.50;;
18013;SDS011;9132;47.946;10.394;2023-12-29T04:06:55;2.20;;;1.87;;
18013;SDS011;9132;47.946;10.394;2023-12-29T04:09:23;1.53;;;1.37;;
18013;SDS011;9132;47.946;10.394;2023-12-29T04:11:49;1.60;;;1.40;;
18013;SDS011;9132;47.946;10.394;2023-12-29T04:14:16;2.37;;;1.60;;
18013;SDS011;9132;47.946;10.394;2023-12-29T04:16:42;1.67;;;1.40;;
18013;SDS011;9132;47.946;10.394;2023-12-29T04:19:09;1.90;;;1.50;;
18013;SDS011;9132;47.946;10.394;2023-12-29T04:21:35;2.33;;;1.70;;
18013;SDS011;9132;47.946;10.394;2023-12-29T04:24:02;1.93;;;1.50;;
18013;SDS011;9132;47.946;10.394;2023-12-29T04:26:34;2.83;;;1.70;;
18013;SDS011;9132;47.946;10.394;2023-12-29T04:29:01;1.63;;;1.53;;
18013;SDS011;9132;47.946;10.394;2023-12-29T04:31:28;2.43;;;1.80;;
18013;SDS011;9132;47.946;10.394;2023-12-29T04:33:55;1.97;;;1.40;;
18013;SDS011;9132;47.946;10.394;2023-12-29T04:36:21;2.30;;;1.60;;
18013;SDS011;9132;47.946;10.394;2023-12-29T04:38:48;1.97;;;1.60;;
18013;SDS011;9132;47.946;10.394;2023-12-29T04:41:14;1.80;;;1.53;;
18013;SDS011;9132;47.946;10.394;2023-12-29T04:43:42;2.70;;;1.70;;
18013;SDS011;9132;47.946;10.394;2023-12-29T04:46:08;2.63;;;1.60;;
18013;SDS011;9132;47.946;10.394;2023-12-29T04:48:35;1.73;;;1.60;;
18013;SDS011;9132;47.946;10.394;2023-12-29T04:51:01;3.10;;;1.70;;
18013;SDS011;9132;47.946;10.394;2023-12-29T04:53:28;2.50;;;1.80;;
18013;SDS011;9132;47.946;10.394;2023-12-29T04:55:55;2.10;;;1.70;;
18013;SDS011;9132;47.946;10.394;2023-12-29T04:58:21;3.20;;;1.90;;
18013;SDS011;9132;47.946;10.394;2023-12-29T05:00:50;3.07;;;1.70;;
18013;SDS011;9132;47.946;10.394;2023-12-29T05:03:16;3.23;;;2.00;;
18013;SDS011;9132;47.946;10.394;2023-12-29T05:05:43;5.00;;;1.90;;
18013;SDS011;9132;47.946;10.394;2023-12-29T05:08:09;2.77;;;1.93;;
18013;SDS011;9132;47.946;10.394;2023-12-29T05:10:36;3.20;;;1.90;;
18013;SDS011;9132;47.946;10.394;2023-12-29T05:13:03;3.53;;;1.60;;
18013;SDS011;9132;47.946;10.394;2023-12-29T05:15:30;2.07;;;1.87;;
18013;SDS011;9132;47.946;10.394;2023-12-29T05:17:57;3.30;;;1.60;;
18013;SDS011;9132;47.946;10.394;2023-12-29T05:20:24;2.40;;;2.10;;
18013;SDS011;9132;47.946;10.394;2023-12-29T05:22:51;2.43;;;1.90;;
18013;SDS011;9132;47.946;10.394;2023-12-29T05:25:17;3.60;;;2.13;;
18013;SDS011;9132;47.946;10.394;2023-12-29T05:27:44;3.13;;;1.90;;
18013;SDS011;9132;47.946;10.394;2023-12-29T05:30:11;2.00;;;1.70;;
18013;SDS011;9132;47.946;10.394;2023-12-29T05:32:38;1.53;;;1.43;;
18013;SDS011;9132;47.946;10.394;2023-12-29T05:35:06;2.60;;;1.47;;
18013;SDS011;9132;47.946;10.394;2023-12-29T05:37:33;2.17;;;1.50;;
18013;SDS011;9132;47.946;10.394;2023-12-29T05:40:00;1.87;;;1.70;;
18013;SDS011;9132;47.946;10.394;2023-12-29T05:42:27;2.93;;;1.80;;
18013;SDS011;9132;47.946;10.394;2023-12-29T05:44:53;2.93;;;1.80;;
18013;SDS011;9132;47.946;10.394;2023-12-29T05:47:20;3.13;;;2.13;;
18013;SDS011;9132;47.946;10.394;2023-12-29T05:49:46;1.70;;;1.60;;
18013;SDS011;9132;47.946;10.394;2023-12-29T05:52:14;2.50;;;1.80;;
18013;SDS011;9132;47.946;10.394;2023-12-29T05:54:41;2.10;;;1.90;;
18013;SDS011;9132;47.946;10.394;2023-12-29T05:57:07;1.97;;;1.77;;
18013;SDS011;9132;47.946;10.394;2023-12-29T05:59:34;4.03;;;1.90;;
18013;SDS011;9132;47.946;10.394;2023-12-29T06:02:00;2.20;;;1.90;;
18013;SDS011;9132;47.946;10.394;2023-12-29T06:04:27;2.40;;;2.20;;
18013;SDS011;9132;47.946;10.394;2023-12-29T06:06:54;2.20;;;1.80;;
18013;SDS011;9132;47.946;10.394;2023-12-29T06:09:22;1.90;;;1.70;;
18013;SDS011;9132;47.946;10.394;2023-12-29T06:11:49;2.00;;;1.60;;
18013;SDS011;9132;47.946;10.394;2023-12-29T06:14:15;1.67;;;1.43;;
18013;SDS011;9132;47.946;10.394;2023-12-29T06:16:42;2.07;;;1.83;;
18013;SDS011;9132;47.946;10.394;2023-12-29T06:19:09;3.00;;;1.83;;
18013;SDS011;9132;47.946;10.394;2023-12-29T06:21:40;2.90;;;2.10;;
18013;SDS011;9132;47.946;10.394;2023-12-29T06:24:07;2.87;;;1.53;;
18013;SDS011;9132;47.946;10.394;2023-12-29T06:26:34;2.70;;;1.80;;
18013;SDS011;9132;47.946;10.394;2023-12-29T06:29:06;1.93;;;1.50;;
18013;SDS011;9132;47.946;10.394;2023-12-29T06:31:33;2.87;;;1.97;;
18013;SDS011;9132;47.946;10.394;2023-12-29T06:33:59;2.70;;;2.10;;
18013;SDS011;9132;47.946;10.394;2023-12-29T06:36:26;2.40;;;2.00;;
18013;SDS011;9132;47.946;10.394;2023-12-29T06:38:52;2.90;;;2.30;;
18013;SDS011;9132;47.946;10.394;2023-12-29T06:41:19;3.73;;;2.40;;
18013;SDS011;9132;47.946;10.394;2023-12-29T06:43:47;2.97;;;2.27;;
18013;SDS011;9132;47.946;10.394;2023-12-29T06:46:13;3.03;;;2.50;;
18013;SDS011;9132;47.946;10.394;2023-12-29T06:48:40;3.50;;;2.60;;
18013;SDS011;9132;47.946;10.394;2023-12-29T06:51:06;2.57;;;2.37;;
18013;SDS011;9132;47.946;10.394;2023-12-29T06:53:35;2.53;;;2.33;;
18013;SDS011;9132;47.946;10.394;2023-12-29T06:56:01;3.67;;;2.40;;
18013;SDS011;9132;47.946;10.394;2023-12-29T06:58:28;2.43;;;1.93;;
18013;SDS011;9132;47.946;10.394;2023-12-29T07:00:56;2.30;;;2.10;;
18013;SDS011;9132;47.946;10.394;2023-12-29T07:03:22;2.67;;;2.47;;
18013;SDS011;9132;47.946;10.394;2023-12-29T07:05:48;2.40;;;2.20;;
18013;SDS011;9132;47.946;10.394;2023-12-29T07:08:15;2.80;;;2.50;;
18013;SDS011;9132;47.946;10.394;2023-12-29T07:10:41;2.83;;;2.43;;
18013;SDS011;9132;47.946;10.394;2023-12-29T07:13:08;2.67;;;2.37;;
18013;SDS011;9132;47.946;10.394;2023-12-29T07:15:35;2.27;;;2.07;;
18013;SDS011;9132;47.946;10.394;2023-12-29T07:18:04;2.77;;;2.37;;
18013;SDS011;9132;47.946;10.394;2023-12-29T07:20:31;2.97;;;2.20;;
18013;SDS011;9132;47.946;10.394;2023-12-29T07:22:57;2.30;;;2.10;;
18013;SDS011;9132;47.946;10.394;2023-12-29T07:25:24;2.47;;;2.10;;
18013;SDS011;9132;47.946;10.394;2023-12-29T07:27:51;2.80;;;2.37;;
18013;SDS011;9132;47.946;10.394;2023-12-29T07:30:17;4.50;;;3.60;;
18013;SDS011;9132;47.946;10.394;2023-12-29T07:32:44;3.90;;;3.33;;
18013;SDS011;9132;47.946;10.394;2023-12-29T07:35:12;4.27;;;2.90;;
18013;SDS011;9132;47.946;10.394;2023-12-29T07:37:41;3.90;;;2.80;;
18013;SDS011;9132;47.946;10.394;2023-12-29T07:40:10;2.30;;;2.00;;
18013;SDS011;9132;47.946;10.394;2023-12-29T07:42:37;3.90;;;1.93;;
18013;SDS011;9132;47.946;10.394;2023-12-29T07:45:04;2.67;;;1.90;;
18013;SDS011;9132;47.946;10.394;2023-12-29T07:47:31;2.50;;;1.90;;
18013;SDS011;9132;47.946;10.394;2023-12-29T07:49:57;2.90;;;1.80;;
18013;SDS011;9132;47.946;10.394;2023-12-29T07:52:25;2.20;;;1.80;;
18013;SDS011;9132;47.946;10.394;2023-12-29T07:54:52;2.13;;;1.93;;
18013;SDS011;9132;47.946;10.394;2023-12-29T07:57:18;2.30;;;1.80;;
18013;SDS011;9132;47.946;10.394;2023-12-29T07:59:45;3.70;;;1.73;;
18013;SDS011;9132;47.946;10.394;2023-12-29T08:02:11;2.50;;;1.90;;
18013;SDS011;9132;47.946;10.394;2023-12-29T08:04:38;2.73;;;1.87;;
18013;SDS011;9132;47.946;10.394;2023-12-29T08:07:04;3.63;;;1.90;;
18013;SDS011;9132;47.946;10.394;2023-12-29T08:09:32;3.50;;;1.90;;
18013;SDS011;9132;47.946;10.394;2023-12-29T08:11:59;2.33;;;2.10;;
18013;SDS011;9132;47.946;10.394;2023-12-29T08:14:26;4.40;;;4.00;;
18013;SDS011;9132;47.946;10.394;2023-12-29T08:16:53;2.97;;;2.63;;
18013;SDS011;9132;47.946;10.394;2023-12-29T08:19:21;3.37;;;2.60;;
18013;SDS011;9132;47.946;10.394;2023-12-29T08:21:48;3.37;;;2.20;;
18013;SDS011;9132;47.946;10.394;2023-12-29T08:24:15;4.57;;;3.07;;
18013;SDS011;9132;47.946;10.394;2023-12-29T08:26:45;1.93;;;1.77;;
18013;SDS011;9132;47.946;10.394;2023-12-29T08:29:12;1.90;;;1.70;;
18013;SDS011;9132;47.946;10.394;2023-12-29T08:31:38;1.70;;;1.60;;
18013;SDS011;9132;47.946;10.394;2023-12-29T08:34:05;2.50;;;1.70;;
18013;SDS011;9132;47.946;10.394;2023-12-29T08:36:31;2.13;;;1.93;;
18013;SDS011;9132;47.946;10.394;2023-12-29T08:39:00;2.63;;;1.70;;
18013;SDS011;9132;47.946;10.394;2023-12-29T08:41:27;2.10;;;1.90;;
18013;SDS011;9132;47.946;10.394;2023-12-29T08:43:55;1.77;;;1.67;;
18013;SDS011;9132;47.946;10.394;2023-12-29T08:46:21;1.73;;;1.57;;
18013;SDS011;9132;47.946;10.394;2023-12-29T08:48:49;2.70;;;1.70;;
18013;SDS011;9132;47.946;10.394;2023-12-29T08:51:16;1.93;;;1.67;;
18013;SDS011;9132;47.946;10.394;2023-12-29T08:53:44;2.30;;;1.57;;
18013;SDS011;9132;47.946;10.394;2023-12-29T08:56:10;2.50;;;1.90;;
18013;SDS011;9132;47.946;10.394;2023-12-29T08:58:38;2.63;;;1.80;;
18013;SDS011;9132;47.946;10.394;2023-12-29T09:01:06;3.13;;;1.80;;
18013;SDS011;9132;47.946;10.394;2023-12-29T09:03:33;2.67;;;1.80;;
18013;SDS011;9132;47.946;10.394;2023-12-29T09:05:59;1.83;;;1.60;;
18013;SDS011;9132;47.946;10.394;2023-12-29T09:08:28;1.70;;;1.60;;
18013;SDS011;9132;47.946;10.394;2023-12-29T09:10:54;2.13;;;1.67;;
18013;SDS011;9132;47.946;10.394;2023-12-29T09:13:21;3.03;;;2.50;;
18013;SDS011;9132;47.946;10.394;2023-12-29T09:15:50;3.80;;;2.27;;
18013;SDS011;9132;47.946;10.394;2023-12-29T09:18:18;2.30;;;1.90;;
18013;SDS011;9132;47.946;10.394;2023-12-29T09:20:44;2.20;;;2.00;;
18013;SDS011;9132;47.946;10.394;2023-12-29T09:23:11;2.40;;;1.90;;
18013;SDS011;9132;47.946;10.394;2023-12-29T09:25:37;3.20;;;2.20;;
18013;SDS011;9132;47.946;10.394;2023-12-29T09:28:04;2.87;;;1.70;;
18013;SDS011;9132;47.946;10.394;2023-12-29T09:30:31;2.63;;;1.70;;
18013;SDS011;9132;47.946;10.394;2023-12-29T09:32:57;1.80;;;1.67;;
18013;SDS011;9132;47.946;10.394;2023-12-29T09:35:25;2.00;;;1.90;;
18013;SDS011;9132;47.946;10.394;2023-12-29T09:37:52;1.70;;;1.60;;
18013;SDS011;9132;47.946;10.394;2023-12-29T09:40:18;2.20;;;1.80;;
18013;SDS011;9132;47.946;10.394;2023-12-29T09:42:45;2.07;;;1.70;;
18013;SDS011;9132;47.946;10.394;2023-12-29T09:45:13;2.47;;;2.00;;
18013;SDS011;9132;47.946;10.394;2023-12-29T09:47:40;2.70;;;2.07;;
18013;SDS011;9132;47.946;10.394;2023-12-29T09:50:10;2.03;;;1.83;;
18013;SDS011;9132;47.946;10.394;2023-12-29T09:52:39;2.60;;;1.73;;
18013;SDS011;9132;47.946;10.394;2023-12-29T09:55:07;2.17;;;1.93;;
18013;SDS011;9132;47.946;10.394;2023-12-29T09:57:35;3.53;;;1.73;;
18013;SDS011;9132;47.946;10.394;2023-12-29T10:00:02;2.30;;;1.70;;
18013;SDS011;9132;47.946;10.394;2023-12-29T10:02:29;3.83;;;3.43;;
18013;SDS011;9132;47.946;10.394;2023-12-29T10:04:57;2.30;;;2.00;;
18013;SDS011;9132;47.946;10.394;2023-12-29T10:07:27;2.47;;;2.20;;
18013;SDS011;9132;47.946;10.394;2023-12-29T10:09:59;2.53;;;2.30;;
18013;SDS011;9132;47.946;10.394;2023-12-29T10:12:27;2.80;;;2.00;;
18013;SDS011;9132;47.946;10.394;2023-12-29T10:14:57;2.10;;;1.90;;
18013;SDS011;9132;47.946;10.394;2023-12-29T10:17:34;2.00;;;1.80;;
18013;SDS011;9132;47.946;10.394;2023-12-29T10:20:08;2.37;;;1.80;;
18013;SDS011;9132;47.946;10.394;2023-12-29T10:22:45;2.30;;;2.10;;
18013;SDS011;9132;47.946;10.394;2023-12-29T10:25:18;1.93;;;1.73;;
18013;SDS011;9132;47.946;10.394;2023-12-29T10:27:45;2.73;;;2.00;;
18013;SDS011;9132;47.946;10.394;2023-12-29T10:30:12;2.07;;;1.70;;
18013;SDS011;9132;47.946;10.394;2023-12-29T10:32:38;2.37;;;2.10;;
18013;SDS011;9132;47.946;10.394;2023-12-29T10:35:08;2.07;;;1.87;;
18013;SDS011;9132;47.946;10.394;2023-12-29T10:37:35;2.27;;;1.73;;
18013;SDS011;9132;47.946;10.394;2023-12-29T10:40:02;2.80;;;2.10;;
18013;SDS011;9132;47.946;10.394;2023-12-29T10:42:31;2.40;;;1.73;;
18013;SDS011;9132;47.946;10.394;2023-12-29T10:45:04;2.00;;;1.80;;
18013;SDS011;9132;47.946;10.394;2023-12-29T10:47:32;2.67;;;1.87;;
18013;SDS011;9132;47.946;10.394;2023-12-29T10:49:58;2.27;;;2.07;;
18013;SDS011;9132;47.946;10.394;2023-12-29T10:52:25;2.23;;;1.57;;
18013;SDS011;9132;47.946;10.394;2023-12-29T10:54:54;2.20;;;2.00;;
18013;SDS011;9132;47.946;10.394;2023-12-29T10:57:32;2.07;;;1.87;;
18013;SDS011;9132;47.946;10.394;2023-12-29T10:59:58;2.83;;;1.97;;
18013;SDS011;9132;47.946;10.394;2023-12-29T11:02:26;1.73;;;1.63;;
18013;SDS011;9132;47.946;10.394;2023-12-29T11:04:55;2.60;;;1.90;;
18013;SDS011;9132;47.946;10.394;2023-12-29T11:07:31;3.63;;;1.73;;
18013;SDS011;9132;47.946;10.394;2023-12-29T11:09:59;3.50;;;1.97;;
18013;SDS011;9132;47.946;10.394;2023-12-29T11:12:27;1.77;;;1.67;;
18013;SDS011;9132;47.946;10.394;2023-12-29T11:14:56;2.10;;;1.90;;
18013;SDS011;9132;47.946;10.394;2023-12-29T11:17:23;2.00;;;1.50;;
18013;SDS011;9132;47.946;10.394;2023-12-29T11:19:52;1.90;;;1.50;;
18013;SDS011;9132;47.946;10.394;2023-12-29T11:22:19;2.60;;;1.50;;
18013;SDS011;9132;47.946;10.394;2023-12-29T11:24:46;1.47;;;1.33;;
18013;SDS011;9132;47.946;10.394;2023-12-29T11:27:13;2.17;;;1.40;;
18013;SDS011;9132;47.946;10.394;2023-12-29T11:29:42;4.13;;;1.60;;
18013;SDS011;9132;47.946;10.394;2023-12-29T11:32:11;2.60;;;1.33;;
18013;SDS011;9132;47.946;10.394;2023-12-29T11:34:46;1.60;;;1.50;;
18013;SDS011;9132;47.946;10.394;2023-12-29T11:37:20;1.87;;;1.40;;
18013;SDS011;9132;47.946;10.394;2023-12-29T11:39:54;1.53;;;1.43;;
18013;SDS011;9132;47.946;10.394;2023-12-29T11:42:31;1.20;;;0.90;;
18013;SDS011;9132;47.946;10.394;2023-12-29T11:45:23;1.20;;;1.10;;
18013;SDS011;9132;47.946;10.394;2023-12-29T11:47:52;2.40;;;1.23;;
18013;SDS011;9132;47.946;10.394;2023-12-29T11:50:27;1.40;;;1.30;;
18013;SDS011;9132;47.946;10.394;2023-12-29T11:52:54;2.87;;;1.07;;
18013;SDS011;9132;47.946;10.394;2023-12-29T11:55:20;3.50;;;1.17;;
18013;SDS011;9132;47.946;10.394;2023-12-29T11:57:47;1.20;;;1.10;;
18013;SDS011;9132;47.946;10.394;2023-12-29T12:00:14;1.43;;;1.33;;
18013;SDS011;9132;47.946;10.394;2023-12-29T12:02:41;1.50;;;1.30;;
18013;SDS011;9132;47.946;10.394;2023-12-29T12:05:09;1.63;;;1.10;;
18013;SDS011;9132;47.946;10.394;2023-12-29T12:07:56;2.60;;;1.20;;
18013;SDS011;9132;47.946;10.394;2023-12-29T12:10:32;1.17;;;1.00;;
18013;SDS011;9132;47.946;10.394;2023-12-29T12:13:03;1.33;;;1.20;;
18013;SDS011;9132;47.946;10.394;2023-12-29T12:15:33;1.50;;;1.20;;
18013;SDS011;9132;47.946;10.394;2023-12-29T12:18:00;1.90;;;1.03;;
18013;SDS011;9132;47.946;10.394;2023-12-29T12:20:30;1.20;;;1.10;;
18013;SDS011;9132;47.946;10.394;2023-12-29T12:22:58;1.23;;;1.10;;
18013;SDS011;9132;47.946;10.394;2023-12-29T12:25:25;0.80;;;0.80;;
18013;SDS011;9132;47.946;10.394;2023-12-29T12:27:53;1.20;;;1.03;;
18013;SDS011;9132;47.946;10.394;2023-12-29T12:30:20;1.00;;;0.90;;
18013;SDS011;9132;47.946;10.394;2023-12-29T12:32:47;1.10;;;1.00;;
18013;SDS011;9132;47.946;10.394;2023-12-29T12:35:23;2.87;;;1.90;;
18013;SDS011;9132;47.946;10.394;2023-12-29T12:37:52;1.17;;;1.00;;
18013;SDS011;9132;47.946;10.394;2023-12-29T12:40:33;1.10;;;1.00;;
18013;SDS011;9132;47.946;10.394;2023-12-29T12:42:59;1.50;;;0.97;;
18013;SDS011;9132;47.946;10.394;2023-12-29T12:45:26;1.57;;;1.10;;
18013;SDS011;9132;47.946;10.394;2023-12-29T12:47:54;1.20;;;1.00;;
18013;SDS011;9132;47.946;10.394;2023-12-29T12:50:26;1.13;;;0.97;;
18013;SDS011;9132;47.946;10.394;2023-12-29T12:52:54;1.00;;;0.90;;
18013;SDS011;9132;47.946;10.394;2023-12-29T12:55:23;1.60;;;1.10;;
18013;SDS011;9132;47.946;10.394;2023-12-29T12:57:50;1.00;;;0.90;;
18013;SDS011;9132;47.946;10.394;2023-12-29T13:00:16;2.57;;;0.90;;
18013;SDS011;9132;47.946;10.394;2023-12-29T13:02:44;2.20;;;1.00;;
18013;SDS011;9132;47.946;10.394;2023-12-29T13:05:11;1.57;;;1.10;;
18013;SDS011;9132;47.946;10.394;2023-12-29T13:07:37;1.10;;;1.00;;
18013;SDS011;9132;47.946;10.394;2023-12-29T13:10:06;1.20;;;0.90;;
18013;SDS011;9132;47.946;10.394;2023-12-29T13:12:34;0.80;;;0.80;;
18013;SDS011;9132;47.946;10.394;2023-12-29T13:15:07;1.43;;;1.33;;
18013;SDS011;9132;47.946;10.394;2023-12-29T13:17:35;2.30;;;1.43;;
18013;SDS011;9132;47.946;10.394;2023-12-29T13:20:01;2.50;;;1.10;;
18013;SDS011;9132;47.946;10.394;2023-12-29T13:22:29;1.20;;;1.10;;
18013;SDS011;9132;47.946;10.394;2023-12-29T13:24:57;1.43;;;1.17;;
18013;SDS011;9132;47.946;10.394;2023-12-29T13:27:25;1.53;;;0.93;;
18013;SDS011;9132;47.946;10.394;2023-12-29T13:29:52;2.30;;;1.10;;
18013;SDS011;9132;47.946;10.394;2023-12-29T13:32:19;1.17;;;0.87;;
18013;SDS011;9132;47.946;10.394;2023-12-29T13:34:51;0.90;;;0.90;;
18013;SDS011;9132;47.946;10.394;2023-12-29T13:37:24;0.97;;;0.90;;
18013;SDS011;9132;47.946;10.394;2023-12-29T13:39:57;0.97;;;0.87;;
18013;SDS011;9132;47.946;10.394;2023-12-29T13:42:31;1.17;;;1.07;;
18013;SDS011;9132;47.946;10.394;2023-12-29T13:44:58;1.40;;;1.00;;
18013;SDS011;9132;47.946;10.394;2023-12-29T13:47:28;1.30;;;1.00;;
18013;SDS011;9132;47.946;10.394;2023-12-29T13:49:56;0.93;;;0.87;;
18013;SDS011;9132;47.946;10.394;2023-12-29T13:52:23;1.23;;;1.10;;
18013;SDS011;9132;47.946;10.394;2023-12-29T13:54:49;1.43;;;1.00;;
18013;SDS011;9132;47.946;10.394;2023-12-29T13:57:16;1.23;;;0.80;;
18013;SDS011;9132;47.946;10.394;2023-12-29T13:59:44;1.50;;;1.10;;
18013;SDS011;9132;47.946;10.394;2023-12-29T14:02:22;1.20;;;1.10;;
18013;SDS011;9132;47.946;10.394;2023-12-29T14:05:05;1.13;;;1.00;;
18013;SDS011;9132;47.946;10.394;2023-12-29T14:07:37;1.10;;;1.00;;
18013;SDS011;9132;47.946;10.394;2023-12-29T14:10:09;1.37;;;1.13;;
18013;SDS011;9132;47.946;10.394;2023-12-29T14:12:35;2.07;;;1.20;;
18013;SDS011;9132;47.946;10.394;2023-12-29T14:15:05;2.17;;;0.90;;
18013;SDS011;9132;47.946;10.394;2023-12-29T14:17:32;1.63;;;1.43;;
18013;SDS011;9132;47.946;10.394;2023-12-29T14:19:59;4.77;;;3.27;;
18013;SDS011;9132;47.946;10.394;2023-12-29T14:22:29;2.43;;;1.80;;
18013;SDS011;9132;47.946;10.394;2023-12-29T14:24:59;4.10;;;2.23;;
18013;SDS011;9132;47.946;10.394;2023-12-29T14:27:28;2.00;;;1.80;;
18013;SDS011;9132;47.946;10.394;2023-12-29T14:29:55;1.20;;;0.83;;
18013;SDS011;9132;47.946;10.394;2023-12-29T14:32:23;2.87;;;1.47;;
18013;SDS011;9132;47.946;10.394;2023-12-29T14:34:50;1.63;;;1.37;;
18013;SDS011;9132;47.946;10.394;2023-12-29T14:37:20;1.47;;;1.20;;
18013;SDS011;9132;47.946;10.394;2023-12-29T14:39:47;1.90;;;1.47;;
18013;SDS011;9132;47.946;10.394;2023-12-29T14:42:14;3.00;;;1.97;;
18013;SDS011;9132;47.946;10.394;2023-12-29T14:44:41;1.10;;;1.00;;
18013;SDS011;9132;47.946;10.394;2023-12-29T14:47:07;1.30;;;1.13;;
18013;SDS011;9132;47.946;10.394;2023-12-29T14:49:35;1.70;;;1.47;;
18013;SDS011;9132;47.946;10.394;2023-12-29T14:52:02;1.07;;;0.97;;
18013;SDS011;9132;47.946;10.394;2023-12-29T14:54:29;3.43;;;1.17;;